createdAt,value
2022-10-19T00:01:33.158Z,30.33
2022-10-19T00:04:04.846Z,24.83
2022-10-19T00:06:37.795Z,8.53
2022-10-19T00:09:08.794Z,9.90
2022-10-19T00:11:40.921Z,9.37
2022-10-19T00:14:10.639Z,26.80
2022-10-19T00:16:40.084Z,60.03
2022-10-19T00:20:04.299Z,29.10
2022-10-19T00:22:33.044Z,302.37
2022-10-19T00:25:02.402Z,15.07
2022-10-19T00:27:32.872Z,10.37
2022-10-19T00:30:01.664Z,12.43
2022-10-19T00:32:30.356Z,12.07
2022-10-19T00:34:59.029Z,8.07
2022-10-19T00:37:27.597Z,10.90
2022-10-19T00:39:56.270Z,9.10
2022-10-19T00:42:24.818Z,11.20
2022-10-19T00:45:09.207Z,9.73
2022-10-19T00:47:37.717Z,11.40
2022-10-19T00:50:07.304Z,10.63
2022-10-19T00:52:36.069Z,10.67
2022-10-19T00:55:05.509Z,11.87
2022-10-19T00:57:35.754Z,9.03
2022-10-19T01:00:09.131Z,15.10
2022-10-19T01:02:38.020Z,9.10
2022-10-19T01:05:07.857Z,13.30
2022-10-19T01:07:36.755Z,12.07
2022-10-19T01:10:06.557Z,12.40
2022-10-19T01:13:09.480Z,11.83
2022-10-19T01:15:47.550Z,10.17
2022-10-19T01:18:22.392Z,12.50
2022-10-19T01:21:23.084Z,11.20
2022-10-19T01:24:39.884Z,9.93
2022-10-19T01:27:31.058Z,12.37
2022-10-19T01:30:12.622Z,11.37
2022-10-19T01:32:56.339Z,16.17
2022-10-19T01:35:34.628Z,10.07
2022-10-19T01:38:12.928Z,14.47
2022-10-19T01:40:47.748Z,10.97
2022-10-19T01:43:25.700Z,11.60
2022-10-19T01:46:01.099Z,11.23
2022-10-19T01:48:34.087Z,10.80
2022-10-19T01:51:06.864Z,11.53
2022-10-19T01:53:41.009Z,11.03
2022-10-19T01:56:11.226Z,11.03
2022-10-19T01:58:43.551Z,10.00
2022-10-19T02:01:18.335Z,10.50
2022-10-19T02:03:47.167Z,12.30
2022-10-19T02:06:16.450Z,11.97
2022-10-19T02:08:48.904Z,13.40
2022-10-19T02:11:18.313Z,15.60
2022-10-19T02:13:49.822Z,14.33
2022-10-19T02:16:25.341Z,14.10
2022-10-19T02:18:56.706Z,15.53
2022-10-19T02:21:26.309Z,16.93
2022-10-19T02:23:54.738Z,15.93
2022-10-19T02:26:23.899Z,16.73
2022-10-19T02:28:52.680Z,17.63
2022-10-19T02:31:22.869Z,15.73
2022-10-19T02:33:51.698Z,18.53
2022-10-19T02:36:21.163Z,19.47
2022-10-19T02:38:49.629Z,19.63
2022-10-19T02:41:22.430Z,14.33
2022-10-19T02:43:54.200Z,16.70
2022-10-19T02:46:30.244Z,16.03
2022-10-19T02:48:59.747Z,15.60
2022-10-19T02:51:36.389Z,19.87
2022-10-19T02:54:07.036Z,17.23
2022-10-19T02:56:36.437Z,18.60
2022-10-19T02:59:05.189Z,16.07
2022-10-19T03:01:35.125Z,21.40
2022-10-19T03:04:03.538Z,17.47
2022-10-19T03:06:32.025Z,19.07
2022-10-19T03:09:00.419Z,20.07
2022-10-19T03:11:28.892Z,14.37
2022-10-19T03:13:57.235Z,18.63
2022-10-19T03:16:25.709Z,17.17
2022-10-19T03:18:55.969Z,18.00
2022-10-19T03:21:24.475Z,19.23
2022-10-19T03:23:52.903Z,17.67
2022-10-19T03:26:21.449Z,20.60
2022-10-19T03:28:49.938Z,16.77
2022-10-19T03:31:18.414Z,16.07
2022-10-19T03:33:47.149Z,20.03
2022-10-19T03:36:23.774Z,17.67
2022-10-19T03:38:53.153Z,20.87
2022-10-19T03:41:21.883Z,20.40
2022-10-19T03:43:50.438Z,19.20
2022-10-19T03:46:18.969Z,23.83
2022-10-19T03:48:47.530Z,15.47
2022-10-19T03:51:19.112Z,20.00
2022-10-19T03:53:49.595Z,19.93
2022-10-19T03:56:20.704Z,16.67
2022-10-19T03:58:50.852Z,15.93
2022-10-19T04:01:21.354Z,15.47
2022-10-19T04:03:54.068Z,20.60
2022-10-19T04:06:26.855Z,19.73
2022-10-19T04:08:57.330Z,22.40
2022-10-19T04:11:28.223Z,19.73
2022-10-19T04:13:57.972Z,17.57
2022-10-19T04:16:28.268Z,17.73
2022-10-19T04:18:57.432Z,19.43
2022-10-19T04:21:29.841Z,18.57
2022-10-19T04:24:02.291Z,18.30
2022-10-19T04:26:31.169Z,21.13
2022-10-19T04:29:03.074Z,16.03
2022-10-19T04:31:31.567Z,18.17
2022-10-19T04:33:59.997Z,17.43
2022-10-19T04:36:28.439Z,20.80
2022-10-19T04:38:56.977Z,18.67
2022-10-19T04:41:27.234Z,20.90
2022-10-19T04:44:00.501Z,21.27
2022-10-19T04:46:30.263Z,19.57
2022-10-19T04:48:59.328Z,18.83
2022-10-19T04:51:28.616Z,22.73
2022-10-19T04:53:59.757Z,21.43
2022-10-19T04:56:32.167Z,20.70
2022-10-19T04:59:01.559Z,17.23
2022-10-19T05:01:32.181Z,21.27
2022-10-19T05:04:01.956Z,15.97
2022-10-19T05:06:31.400Z,16.77
2022-10-19T05:09:00.502Z,19.97
2022-10-19T05:11:30.428Z,13.60
2022-10-19T05:14:00.136Z,16.83
2022-10-19T05:16:28.750Z,15.00
2022-10-19T05:18:59.893Z,16.60
2022-10-19T05:21:29.588Z,13.50
2022-10-19T05:23:58.906Z,14.73
2022-10-19T05:26:30.477Z,11.93
2022-10-19T05:29:02.241Z,15.10
2022-10-19T05:31:32.929Z,13.43
2022-10-19T05:34:01.551Z,14.70
2022-10-19T05:36:34.786Z,16.23
2022-10-19T05:39:05.392Z,14.77
2022-10-19T05:41:35.718Z,14.27
2022-10-19T05:44:05.442Z,16.70
2022-10-19T05:46:34.643Z,15.00
2022-10-19T05:49:03.366Z,12.87
2022-10-19T05:51:31.894Z,16.23
2022-10-19T05:54:00.750Z,11.47
2022-10-19T05:56:31.130Z,10.07
2022-10-19T05:59:03.196Z,11.60
2022-10-19T06:01:33.141Z,12.13
2022-10-19T06:04:03.144Z,8.93
2022-10-19T06:06:33.045Z,9.87
2022-10-19T06:09:02.125Z,6.17
2022-10-19T06:11:32.142Z,10.67
2022-10-19T06:14:03.393Z,8.20
2022-10-19T06:16:33.754Z,9.10
2022-10-19T06:19:02.303Z,8.40
2022-10-19T06:21:32.541Z,8.00
2022-10-19T06:24:03.370Z,7.60
2022-10-19T06:26:33.035Z,6.20
2022-10-19T06:29:03.597Z,6.47
2022-10-19T06:31:33.286Z,6.93
2022-10-19T06:34:01.844Z,6.00
2022-10-19T06:36:36.072Z,8.37
2022-10-19T06:39:10.804Z,7.53
2022-10-19T06:41:39.319Z,10.27
2022-10-19T06:44:11.532Z,6.50
2022-10-19T06:46:40.252Z,6.97
2022-10-19T06:49:08.691Z,7.90
2022-10-19T06:51:37.148Z,6.63
2022-10-19T06:54:05.764Z,7.40
2022-10-19T06:56:34.860Z,7.93
2022-10-19T06:59:03.357Z,11.37
2022-10-19T07:01:33.398Z,5.00
2022-10-19T07:04:02.960Z,8.43
2022-10-19T07:06:31.428Z,9.83
2022-10-19T07:08:59.916Z,6.87
2022-10-19T07:11:28.365Z,7.70
2022-10-19T07:13:56.785Z,10.80
2022-10-19T07:16:25.387Z,5.03
2022-10-19T07:18:55.647Z,9.47
2022-10-19T07:21:25.231Z,5.13
2022-10-19T07:23:56.578Z,8.77
2022-10-19T07:26:28.142Z,6.13
2022-10-19T07:28:58.592Z,7.60
2022-10-19T07:31:28.644Z,6.80
2022-10-19T07:34:00.590Z,5.63
2022-10-19T07:36:30.806Z,3.73
2022-10-19T07:38:59.906Z,6.90
2022-10-19T07:41:28.456Z,7.13
2022-10-19T07:43:58.057Z,6.30
2022-10-19T07:46:29.354Z,7.70
2022-10-19T07:48:59.290Z,8.50
2022-10-19T07:54:02.613Z,6.20
2022-10-19T07:56:31.747Z,8.87
2022-10-19T07:59:01.603Z,5.37
2022-10-19T08:01:31.865Z,7.70
2022-10-19T08:06:51.182Z,6.90
2022-10-19T08:09:47.302Z,4.63
2022-10-19T08:12:12.462Z,9.37
2022-10-19T08:14:43.808Z,4.97
2022-10-19T08:17:17.111Z,3.57
2022-10-19T08:19:47.735Z,4.53
2022-10-19T08:22:16.270Z,7.70
2022-10-19T08:24:44.969Z,7.53
2022-10-19T08:27:15.048Z,6.43
2022-10-19T08:29:43.571Z,5.20
2022-10-19T08:32:12.507Z,4.93
2022-10-19T08:34:41.678Z,7.90
2022-10-19T08:37:26.090Z,7.43
2022-10-19T08:40:00.349Z,6.37
2022-10-19T08:42:41.243Z,6.87
2022-10-19T08:45:34.246Z,8.03
2022-10-19T08:48:23.657Z,2.77
2022-10-19T08:50:52.962Z,6.03
2022-10-19T08:53:28.720Z,4.37
2022-10-19T08:56:12.375Z,4.23
2022-10-19T08:59:05.156Z,7.63
2022-10-19T09:01:40.533Z,6.93
2022-10-19T09:04:16.282Z,3.90
2022-10-19T09:06:54.084Z,2.93
2022-10-19T09:09:24.763Z,4.70
2022-10-19T09:11:58.003Z,4.83
2022-10-19T09:14:33.300Z,4.60
2022-10-19T09:17:05.315Z,3.43
2022-10-19T09:19:34.209Z,3.20
2022-10-19T09:22:07.752Z,2.33
2022-10-19T09:24:45.412Z,4.70
2022-10-19T09:27:20.381Z,5.33
2022-10-19T09:29:55.741Z,4.47
2022-10-19T09:32:28.266Z,2.80
2022-10-19T09:35:02.498Z,1.77
2022-10-19T09:37:31.394Z,6.57
2022-10-19T09:40:01.778Z,3.27
2022-10-19T09:42:34.136Z,3.57
2022-10-19T09:45:13.414Z,4.80
2022-10-19T09:47:44.065Z,1.70
2022-10-19T09:50:21.336Z,4.03
2022-10-19T09:52:50.850Z,2.47
2022-10-19T09:55:30.016Z,4.10
2022-10-19T09:58:03.898Z,2.80
2022-10-19T10:00:38.615Z,1.87
2022-10-19T10:03:09.462Z,2.17
2022-10-19T10:05:42.495Z,3.77
2022-10-19T10:08:16.047Z,2.67
2022-10-19T10:10:48.229Z,1.90
2022-10-19T10:13:20.196Z,2.30
2022-10-19T10:15:51.453Z,2.23
2022-10-19T10:18:20.839Z,1.50
2022-10-19T10:21:06.075Z,0.80
2022-10-19T10:23:37.969Z,2.27
2022-10-19T10:26:18.640Z,1.40
2022-10-19T10:28:49.700Z,1.77
2022-10-19T10:31:24.814Z,1.83
2022-10-19T10:34:10.920Z,3.40
2022-10-19T10:36:52.942Z,1.93
2022-10-19T10:39:21.697Z,0.90
2022-10-19T10:41:52.031Z,2.20
2022-10-19T10:44:26.659Z,2.90
2022-10-19T10:46:58.351Z,1.70
2022-10-19T10:49:29.778Z,1.10
2022-10-19T10:52:01.938Z,1.17
2022-10-19T10:54:32.373Z,1.63
2022-10-19T10:57:12.439Z,1.40
2022-10-19T10:59:49.694Z,3.20
2022-10-19T11:02:32.939Z,1.40
2022-10-19T11:05:07.755Z,1.80
2022-10-19T11:07:38.174Z,1.83
2022-10-19T11:10:14.875Z,2.13
2022-10-19T11:12:49.420Z,1.33
2022-10-19T11:15:24.294Z,1.13
2022-10-19T11:18:07.543Z,0.63
2022-10-19T11:20:42.063Z,2.67
2022-10-19T11:23:17.512Z,0.57
2022-10-19T11:25:55.156Z,0.60
2022-10-19T11:28:37.363Z,0.40
2022-10-19T11:31:17.486Z,0.43
2022-10-19T11:33:56.112Z,0.63
2022-10-19T11:36:44.471Z,0.97
2022-10-19T11:39:29.169Z,0.50
2022-10-19T11:42:07.185Z,1.60
2022-10-19T11:44:51.787Z,0.50
2022-10-19T11:47:40.286Z,0.50
2022-10-19T11:50:21.974Z,0.57
2022-10-19T11:52:56.579Z,0.70
2022-10-19T11:55:36.227Z,4.43
2022-10-19T11:58:16.382Z,11.77
2022-10-19T12:00:57.369Z,44.23
2022-10-19T12:03:49.087Z,5.33
2022-10-19T12:06:26.246Z,4.37
2022-10-19T12:09:15.087Z,16.40
2022-10-19T12:11:56.419Z,4.07
2022-10-19T12:14:29.578Z,4.00
2022-10-19T12:17:10.667Z,2.10
2022-10-19T12:19:44.956Z,2.80
2022-10-19T12:22:18.468Z,1.60
2022-10-19T12:24:47.149Z,2.10
2022-10-19T12:27:18.713Z,1.27
2022-10-19T12:29:51.212Z,1.27
2022-10-19T12:32:25.105Z,1.53
2022-10-19T12:35:00.660Z,3.80
2022-10-19T12:37:37.658Z,2.63
2022-10-19T12:40:13.183Z,3.07
2022-10-19T12:42:52.215Z,3.60
2022-10-19T12:45:27.640Z,5.10
2022-10-19T12:48:20.721Z,3.83
2022-10-19T12:51:12.634Z,2.57
2022-10-19T12:53:44.683Z,4.03
2022-10-19T12:56:19.730Z,2.33
2022-10-19T12:58:55.772Z,2.00
2022-10-19T13:01:28.558Z,2.57
2022-10-19T13:04:12.210Z,2.63
2022-10-19T13:06:45.509Z,1.67
2022-10-19T13:09:26.367Z,2.40
2022-10-19T13:12:30.599Z,2.03
2022-10-19T13:15:00.390Z,2.27
2022-10-19T13:17:44.530Z,3.30
2022-10-19T13:20:52.838Z,1.97
2022-10-19T13:23:42.394Z,1.70
2022-10-19T13:26:31.847Z,2.23
2022-10-19T13:29:00.696Z,2.90
2022-10-19T13:31:31.033Z,2.10
2022-10-19T13:33:59.860Z,3.13
2022-10-19T13:36:29.893Z,2.77
2022-10-19T13:39:15.503Z,2.17
2022-10-19T13:41:53.325Z,1.40
2022-10-19T13:44:39.728Z,4.27
2022-10-19T13:50:33.220Z,0.97
2022-10-19T13:53:33.291Z,2.60
2022-10-19T13:56:16.791Z,3.57
2022-10-19T13:59:12.557Z,2.13
2022-10-19T14:01:53.315Z,2.20
2022-10-19T14:04:30.876Z,1.70
2022-10-19T14:07:06.684Z,2.67
2022-10-19T14:10:13.854Z,1.73
2022-10-19T14:12:44.531Z,2.30
2022-10-19T14:15:24.946Z,3.13
2022-10-19T14:17:53.647Z,2.37
2022-10-19T14:20:30.004Z,3.63
2022-10-19T14:22:58.932Z,1.60
2022-10-19T14:25:33.177Z,2.10
2022-10-19T14:28:06.328Z,4.07
2022-10-19T14:30:37.060Z,5.10
2022-10-19T14:33:10.537Z,3.13
2022-10-19T14:35:41.491Z,1.97
2022-10-19T14:38:18.018Z,1.93
2022-10-19T14:40:48.077Z,2.30
2022-10-19T14:43:22.916Z,1.13
2022-10-19T14:46:14.325Z,2.23
2022-10-19T14:48:45.779Z,2.93
2022-10-19T14:51:30.718Z,1.40
2022-10-19T14:54:05.286Z,1.13
2022-10-19T14:56:44.515Z,4.07
2022-10-19T14:59:27.180Z,2.27
2022-10-19T15:01:58.299Z,1.80
2022-10-19T15:04:31.159Z,5.27
2022-10-19T15:07:03.106Z,1.60
2022-10-19T15:09:47.879Z,2.43
2022-10-19T15:12:21.244Z,1.83
2022-10-19T15:14:51.195Z,1.07
2022-10-19T15:17:28.171Z,2.20
2022-10-19T15:20:00.401Z,1.43
2022-10-19T15:22:41.688Z,2.90
2022-10-19T15:25:32.950Z,1.93
2022-10-19T15:28:34.880Z,2.47
2022-10-19T15:31:08.093Z,1.47
2022-10-19T15:33:41.386Z,4.77
2022-10-19T15:36:17.246Z,2.57
2022-10-19T15:38:47.673Z,2.73
2022-10-19T15:41:28.949Z,4.03
2022-10-19T15:44:01.245Z,3.07
2022-10-19T15:46:33.027Z,2.03
2022-10-19T15:49:04.894Z,2.33
2022-10-19T15:51:36.854Z,2.57
2022-10-19T15:54:07.634Z,4.20
2022-10-19T15:56:40.733Z,2.37
2022-10-19T15:59:14.733Z,2.60
2022-10-19T16:01:44.105Z,5.50
2022-10-19T16:04:13.038Z,4.13
2022-10-19T16:06:44.207Z,3.87
2022-10-19T16:09:19.190Z,3.43
2022-10-19T16:11:48.021Z,2.13
2022-10-19T16:14:17.986Z,4.97
2022-10-19T16:16:46.526Z,12.90
2022-10-19T16:19:14.952Z,3.67
2022-10-19T16:21:50.042Z,2.13
2022-10-19T16:24:18.877Z,2.03
2022-10-19T16:26:47.755Z,2.70
2022-10-19T16:29:17.964Z,3.60
2022-10-19T16:31:46.448Z,2.63
2022-10-19T16:34:14.997Z,2.27
2022-10-19T16:36:43.786Z,2.50
2022-10-19T16:39:12.386Z,3.53
2022-10-19T16:41:40.977Z,10.87
2022-10-19T16:44:12.500Z,35.70
2022-10-19T16:46:42.378Z,30.83
2022-10-19T16:49:11.277Z,15.20
2022-10-19T16:51:41.767Z,38.97
2022-10-19T16:54:12.137Z,50.03
2022-10-19T16:56:45.562Z,28.10
2022-10-19T16:59:15.797Z,23.33
2022-10-19T17:01:47.671Z,13.03
2022-10-19T17:04:17.648Z,14.97
2022-10-19T17:06:46.479Z,6.20
2022-10-19T17:12:07.503Z,12.40
2022-10-19T17:14:36.231Z,6.37
2022-10-19T17:17:06.494Z,8.30
2022-10-19T17:19:35.484Z,5.57
2022-10-19T17:22:05.334Z,6.53
2022-10-19T17:24:33.865Z,7.80
2022-10-19T17:27:04.217Z,6.77
2022-10-19T17:29:33.040Z,9.97
2022-10-19T17:32:01.511Z,11.43
2022-10-19T17:34:31.488Z,7.80
2022-10-19T17:36:59.923Z,8.13
2022-10-19T17:39:29.926Z,19.17
2022-10-19T17:42:02.236Z,14.93
2022-10-19T17:44:34.181Z,8.33
2022-10-19T17:47:02.824Z,9.20
2022-10-19T17:49:33.213Z,10.00
2022-10-19T17:52:01.690Z,9.53
2022-10-19T17:54:30.764Z,8.13
2022-10-19T17:57:02.195Z,8.13
2022-10-19T17:59:46.745Z,8.70
2022-10-19T18:02:19.433Z,6.67
2022-10-19T18:04:49.346Z,7.83
2022-10-19T18:07:18.958Z,6.73
2022-10-19T18:09:47.560Z,5.37
2022-10-19T18:12:16.143Z,6.37
2022-10-19T18:14:46.258Z,8.87
2022-10-19T18:17:14.743Z,11.43
2022-10-19T18:19:43.249Z,7.07
2022-10-19T18:22:13.212Z,4.57
2022-10-19T18:24:41.675Z,6.77
2022-10-19T18:27:12.940Z,3.93
2022-10-19T18:29:41.475Z,6.60
2022-10-19T18:32:10.182Z,4.87
2022-10-19T18:34:38.874Z,5.03
2022-10-19T18:37:07.659Z,5.27
2022-10-19T18:39:37.716Z,6.47
2022-10-19T18:42:06.277Z,10.33
2022-10-19T18:44:35.112Z,5.63
2022-10-19T18:47:03.543Z,10.93
2022-10-19T18:49:32.141Z,4.23
2022-10-19T18:52:00.723Z,5.20
2022-10-19T18:54:30.695Z,7.40
2022-10-19T18:57:01.880Z,8.47
2022-10-19T18:59:30.736Z,6.87
2022-10-19T19:01:59.262Z,10.67
2022-10-19T19:04:27.848Z,6.17
2022-10-19T19:06:56.391Z,8.43
2022-10-19T19:09:25.181Z,9.80
2022-10-19T19:11:54.600Z,6.27
2022-10-19T19:14:25.957Z,5.43
2022-10-19T19:16:55.049Z,4.97
2022-10-19T19:19:24.872Z,6.87
2022-10-19T19:21:53.514Z,6.83
2022-10-19T19:24:23.415Z,6.73
2022-10-19T19:26:54.518Z,6.60
2022-10-19T19:29:24.697Z,6.27
2022-10-19T19:31:54.149Z,6.67
2022-10-19T19:34:22.685Z,7.43
2022-10-19T19:36:51.288Z,8.17
2022-10-19T19:39:21.458Z,8.70
2022-10-19T19:41:53.285Z,7.10
2022-10-19T19:44:25.231Z,7.27
2022-10-19T19:46:54.055Z,7.77
2022-10-19T19:49:23.958Z,7.53
2022-10-19T19:51:52.935Z,8.50
2022-10-19T19:54:23.626Z,7.40
2022-10-19T19:56:52.665Z,20.17
2022-10-19T19:59:23.724Z,567.53
2022-10-19T20:01:52.459Z,750.07
2022-10-19T20:04:21.513Z,612.23
2022-10-19T20:06:50.062Z,548.97
2022-10-19T20:09:18.622Z,805.10
2022-10-19T20:11:47.078Z,400.10
2022-10-19T20:14:15.982Z,416.93
2022-10-19T20:16:46.312Z,689.17
2022-10-19T20:19:15.913Z,1037.13
2022-10-19T20:21:44.555Z,1025.17
2022-10-19T20:24:13.176Z,231.03
2022-10-19T20:26:41.770Z,11.57
2022-10-19T20:29:10.316Z,764.13
2022-10-19T20:31:40.661Z,479.50
2022-10-19T20:34:13.975Z,338.97
2022-10-19T20:36:42.899Z,26.63
2022-10-19T20:39:11.606Z,5.60
2022-10-19T20:41:40.377Z,7.80
2022-10-19T20:44:09.165Z,8.47
2022-10-19T20:46:38.366Z,10.37
2022-10-19T20:49:07.705Z,11.23
2022-10-19T20:51:38.838Z,9.63
2022-10-19T20:54:09.933Z,16.33
2022-10-19T20:56:40.384Z,9.63
2022-10-19T20:59:12.687Z,11.33
2022-10-19T21:01:42.968Z,9.70
2022-10-19T21:04:12.937Z,10.23
2022-10-19T21:06:44.668Z,10.47
2022-10-19T21:09:16.645Z,10.37
2022-10-19T21:11:46.034Z,10.13
2022-10-19T21:14:17.154Z,8.43
2022-10-19T21:16:46.015Z,8.33
2022-10-19T21:19:16.405Z,10.00
2022-10-19T21:21:47.975Z,7.43
2022-10-19T21:24:19.815Z,7.53
2022-10-19T21:26:49.113Z,5.57
2022-10-19T21:29:18.573Z,7.50
2022-10-19T21:31:50.410Z,10.83
2022-10-19T21:34:21.991Z,8.60
2022-10-19T21:36:52.294Z,8.67
2022-10-19T21:39:22.399Z,9.67
2022-10-19T21:41:51.573Z,11.43
2022-10-19T21:44:23.370Z,8.37
2022-10-19T21:46:52.069Z,10.30
2022-10-19T21:49:22.374Z,8.10
2022-10-19T21:51:55.930Z,9.10
2022-10-19T21:54:26.654Z,8.33
2022-10-19T21:56:56.980Z,10.07
2022-10-19T21:59:26.286Z,9.77
2022-10-19T22:01:56.583Z,14.17
2022-10-19T22:04:25.470Z,8.63
2022-10-19T22:06:55.415Z,14.40
2022-10-19T22:09:24.236Z,12.33
2022-10-19T22:11:52.689Z,13.47
2022-10-19T22:14:21.303Z,12.07
2022-10-19T22:16:49.751Z,11.50
2022-10-19T22:19:18.387Z,14.10
2022-10-19T22:21:46.929Z,553.97
2022-10-19T22:24:17.282Z,529.37
2022-10-19T22:26:51.160Z,822.57
2022-10-19T22:29:20.061Z,79.97
2022-10-19T22:31:48.970Z,26.73
2022-10-19T22:34:18.698Z,22.27
2022-10-19T22:36:47.361Z,21.23
2022-10-19T22:39:17.773Z,20.47
2022-10-19T22:41:46.253Z,21.73
2022-10-19T22:44:14.720Z,20.37
2022-10-19T22:46:43.290Z,662.97
2022-10-19T22:49:11.892Z,871.97
2022-10-19T22:51:40.408Z,875.43
2022-10-19T22:54:08.846Z,629.97
2022-10-19T22:56:38.921Z,258.67
2022-10-19T22:59:08.905Z,57.70
2022-10-19T23:01:39.582Z,37.57
2022-10-19T23:04:08.314Z,28.60
2022-10-19T23:06:36.998Z,34.57
2022-10-19T23:09:05.749Z,32.97
2022-10-19T23:11:34.381Z,99.43
2022-10-19T23:14:04.599Z,36.03
2022-10-19T23:16:39.868Z,26.20
2022-10-19T23:19:08.744Z,29.37
2022-10-19T23:21:38.239Z,22.80
2022-10-19T23:24:09.695Z,20.73
2022-10-19T23:26:38.419Z,20.17
2022-10-19T23:29:08.384Z,20.33
2022-10-19T23:31:36.917Z,20.93
2022-10-19T23:34:05.446Z,24.10
2022-10-19T23:36:34.084Z,25.03
2022-10-19T23:39:02.634Z,28.10
2022-10-19T23:41:31.174Z,20.77
2022-10-19T23:43:59.747Z,23.47
2022-10-19T23:46:29.675Z,24.50
2022-10-19T23:48:58.373Z,24.07
2022-10-19T23:51:26.985Z,22.90
2022-10-19T23:53:55.557Z,20.17
2022-10-19T23:56:27.516Z,23.37
2022-10-19T23:58:56.753Z,19.73
